createdAt,value
2019-01-05T00:01:29.809Z,16.48
2019-01-05T00:04:18.127Z,16.62
2019-01-05T00:10:39.109Z,14.75
2019-01-05T00:16:12.894Z,15.85
2019-01-05T00:19:01.227Z,16.25
2019-01-05T00:21:49.392Z,17.40
2019-01-05T00:24:54.518Z,16.35
2019-01-05T00:27:59.866Z,16.20
2019-01-05T00:31:08.394Z,18.00
2019-01-05T00:33:57.159Z,17.07
2019-01-05T00:37:07.830Z,20.15
2019-01-05T00:43:03.038Z,17.70
2019-01-05T00:45:51.104Z,19.02
2019-01-05T00:49:02.416Z,16.97
2019-01-05T00:55:49.159Z,15.65
2019-01-05T01:01:50.442Z,13.90
2019-01-05T01:04:38.088Z,14.63
2019-01-05T01:07:25.828Z,14.50
2019-01-05T01:10:13.560Z,14.47
2019-01-05T01:13:01.253Z,15.65
2019-01-05T01:16:09.694Z,13.65
2019-01-05T01:18:57.309Z,12.55
2019-01-05T01:21:45.219Z,14.80
2019-01-05T01:24:32.955Z,15.70
2019-01-05T01:27:20.771Z,15.90
2019-01-05T01:30:08.456Z,18.45
2019-01-05T01:32:56.309Z,17.35
2019-01-05T01:36:04.743Z,18.85
2019-01-05T01:42:21.115Z,18.55
2019-01-05T01:45:28.058Z,21.00
2019-01-05T01:48:36.424Z,17.40
2019-01-05T01:51:38.537Z,18.48
2019-01-05T01:54:26.225Z,16.82
2019-01-05T02:00:34.572Z,16.57
2019-01-05T02:03:43.028Z,15.90
2019-01-05T02:09:52.617Z,16.48
2019-01-05T02:13:01.063Z,15.95
2019-01-05T02:19:41.422Z,16.25
2019-01-05T02:23:07.494Z,16.67
2019-01-05T02:26:30.142Z,16.80
2019-01-05T02:29:56.291Z,16.12
2019-01-05T02:33:22.401Z,16.00
2019-01-05T02:39:50.111Z,17.55
2019-01-05T02:43:16.222Z,17.23
2019-01-05T02:46:42.303Z,15.88
2019-01-05T02:50:08.418Z,16.15
2019-01-05T02:53:34.517Z,16.65
2019-01-05T03:00:09.415Z,16.40
2019-01-05T03:03:35.531Z,15.00
2019-01-05T03:06:59.644Z,13.65
2019-01-05T03:10:12.008Z,14.00
2019-01-05T03:13:38.114Z,12.55
2019-01-05T03:17:03.299Z,12.47
2019-01-05T03:20:15.632Z,13.20
2019-01-05T03:23:41.729Z,12.15
2019-01-05T03:26:59.199Z,11.97
2019-01-05T03:30:25.299Z,11.75
2019-01-05T03:33:51.408Z,12.10
2019-01-05T03:37:04.617Z,11.40
2019-01-05T03:40:30.752Z,12.80
2019-01-05T03:43:45.229Z,12.70
2019-01-05T03:47:11.326Z,11.45
2019-01-05T03:50:37.449Z,11.88
2019-01-05T03:54:03.554Z,12.28
2019-01-05T03:57:18.822Z,13.40
2019-01-05T04:00:33.839Z,14.00
2019-01-05T04:03:59.954Z,12.82
2019-01-05T04:07:18.039Z,15.00
2019-01-05T04:10:44.161Z,13.53
2019-01-05T04:14:10.268Z,13.65
2019-01-05T04:17:36.376Z,14.23
2019-01-05T04:21:02.503Z,12.53
2019-01-05T04:24:28.603Z,13.62
2019-01-05T04:27:43.241Z,12.98
2019-01-05T04:31:09.366Z,12.40
2019-01-05T04:34:38.244Z,12.05
2019-01-05T04:37:53.420Z,11.90
2019-01-05T04:41:19.519Z,11.48
2019-01-05T04:44:45.608Z,12.00
2019-01-05T04:48:01.286Z,12.35
2019-01-05T04:51:27.380Z,10.40
2019-01-05T04:54:48.564Z,11.80
2019-01-05T04:58:14.661Z,10.90
2019-01-05T05:01:40.768Z,12.55
2019-01-05T05:05:06.882Z,11.20
2019-01-05T05:08:31.277Z,8.90
2019-01-05T05:11:57.424Z,8.48
2019-01-05T05:15:11.310Z,8.78
2019-01-05T05:18:37.491Z,9.60
2019-01-05T05:22:03.574Z,9.98
2019-01-05T05:25:24.523Z,9.98
2019-01-05T05:28:38.740Z,9.93
2019-01-05T05:32:04.881Z,11.65
2019-01-05T05:35:30.997Z,11.97
2019-01-05T05:38:45.234Z,10.63
2019-01-05T05:42:11.319Z,10.05
2019-01-05T05:45:37.491Z,9.45
2019-01-05T05:49:03.586Z,9.28
2019-01-05T05:52:25.514Z,8.63
2019-01-05T05:55:37.814Z,8.30
2019-01-05T05:58:50.054Z,8.15
2019-01-05T06:02:16.147Z,8.23
2019-01-05T06:05:42.253Z,8.48
2019-01-05T06:09:08.355Z,9.80
2019-01-05T06:15:45.895Z,8.08
2019-01-05T06:19:12.039Z,7.80
2019-01-05T06:22:38.368Z,7.40
2019-01-05T06:26:04.469Z,8.80
2019-01-05T06:29:30.610Z,8.48
2019-01-05T06:32:56.703Z,8.63
2019-01-05T06:36:22.802Z,9.40
2019-01-05T06:39:48.902Z,7.72
2019-01-05T06:43:15.011Z,7.72
2019-01-05T06:46:41.105Z,8.65
2019-01-05T06:49:58.900Z,8.05
2019-01-05T06:53:25.023Z,7.75
2019-01-05T06:56:51.123Z,8.35
2019-01-05T07:00:17.245Z,7.95
2019-01-05T07:03:43.359Z,7.97
2019-01-05T07:07:12.266Z,7.47
2019-01-05T07:10:38.357Z,7.40
2019-01-05T07:14:07.543Z,8.00
2019-01-05T07:17:30.647Z,8.23
2019-01-05T07:20:50.424Z,8.65
2019-01-05T07:24:16.523Z,7.62
2019-01-05T07:27:42.622Z,7.78
2019-01-05T07:31:08.721Z,8.30
2019-01-05T07:38:06.422Z,7.95
2019-01-05T07:41:32.523Z,7.00
2019-01-05T07:44:50.977Z,7.97
2019-01-05T07:48:16.088Z,8.83
2019-01-05T07:51:42.254Z,7.08
2019-01-05T07:55:04.826Z,7.20
2019-01-05T07:58:30.948Z,7.97
2019-01-05T08:01:57.100Z,7.80
2019-01-05T08:05:23.181Z,5.95
2019-01-05T08:08:49.376Z,5.80
2019-01-05T08:12:15.509Z,4.40
2019-01-05T08:15:31.593Z,3.40
2019-01-05T08:18:57.691Z,3.47
2019-01-05T08:22:10.454Z,2.90
2019-01-05T08:25:36.574Z,2.05
2019-01-05T08:28:58.685Z,1.60
2019-01-05T08:32:24.785Z,1.82
2019-01-05T08:35:36.362Z,1.60
2019-01-05T08:39:02.463Z,1.30
2019-01-05T08:42:24.694Z,1.25
2019-01-05T08:45:50.775Z,1.47
2019-01-05T08:49:16.890Z,1.70
2019-01-05T08:52:42.974Z,1.50
2019-01-05T08:56:09.167Z,1.30
2019-01-05T08:59:21.366Z,1.40
2019-01-05T09:02:47.461Z,1.00
2019-01-05T09:06:13.564Z,1.10
2019-01-05T09:09:25.735Z,1.10
2019-01-05T09:12:45.387Z,1.30
2019-01-05T09:16:12.906Z,1.27
2019-01-05T09:19:30.891Z,1.15
2019-01-05T09:22:56.975Z,1.30
2019-01-05T09:26:23.288Z,1.98
2019-01-05T09:29:49.392Z,1.00
2019-01-05T09:33:15.530Z,1.05
2019-01-05T09:36:41.619Z,1.60
2019-01-05T09:40:07.748Z,1.80
2019-01-05T09:43:33.875Z,1.85
2019-01-05T09:46:59.990Z,1.45
2019-01-05T09:50:26.394Z,1.47
2019-01-05T09:53:52.575Z,1.50
2019-01-05T09:57:06.612Z,1.35
2019-01-05T10:00:32.738Z,1.35
2019-01-05T10:03:58.851Z,1.20
2019-01-05T10:07:25.026Z,1.17
2019-01-05T10:10:51.315Z,1.30
2019-01-05T10:14:17.415Z,1.10
2019-01-05T10:24:15.687Z,1.15
2019-01-05T10:27:44.833Z,1.10
2019-01-05T10:31:10.924Z,1.10
2019-01-05T10:34:30.351Z,1.40
2019-01-05T10:41:14.193Z,1.72
2019-01-05T10:44:40.323Z,1.35
2019-01-05T10:48:07.324Z,1.00
2019-01-05T10:51:33.461Z,0.95
2019-01-05T10:54:59.542Z,1.50
2019-01-05T10:58:25.645Z,1.20
2019-01-05T11:01:51.772Z,1.25
2019-01-05T11:05:20.921Z,1.42
2019-01-05T11:08:47.015Z,1.55
2019-01-05T11:12:13.121Z,1.80
2019-01-05T11:15:42.000Z,1.62
2019-01-05T11:19:08.109Z,1.30
2019-01-05T11:22:34.212Z,1.10
2019-01-05T11:29:06.096Z,1.25
2019-01-05T11:32:32.189Z,1.17
2019-01-05T11:35:58.286Z,1.30
2019-01-05T11:42:35.035Z,1.10
2019-01-05T11:46:01.136Z,1.10
2019-01-05T11:49:27.218Z,1.07
2019-01-05T11:52:51.842Z,1.50
2019-01-05T11:59:28.872Z,0.90
2019-01-05T12:02:51.806Z,1.32
2019-01-05T12:06:17.919Z,0.90
2019-01-05T12:09:44.033Z,1.20
2019-01-05T12:13:10.128Z,1.45
2019-01-05T12:16:32.238Z,1.12
2019-01-05T12:22:56.538Z,1.00
2019-01-05T12:26:22.650Z,1.12
2019-01-05T12:29:48.751Z,1.10
2019-01-05T12:33:00.907Z,1.10
2019-01-05T12:36:27.019Z,0.80
2019-01-05T12:39:53.137Z,0.90
2019-01-05T12:43:19.241Z,0.70
2019-01-05T12:50:01.676Z,0.80
2019-01-05T12:53:19.168Z,0.82
2019-01-05T12:56:39.477Z,1.10
2019-01-05T12:59:53.194Z,0.78
2019-01-05T13:03:19.312Z,0.88
2019-01-05T13:06:45.408Z,1.05
2019-01-05T13:10:11.559Z,0.90
2019-01-05T13:13:40.705Z,0.75
2019-01-05T13:17:06.841Z,1.17
2019-01-05T13:20:32.988Z,0.80
2019-01-05T13:23:59.105Z,1.10
2019-01-05T13:27:25.211Z,1.15
2019-01-05T13:30:51.335Z,1.20
2019-01-05T13:34:17.493Z,0.90
2019-01-05T13:37:43.601Z,0.80
2019-01-05T13:41:09.725Z,0.98
2019-01-05T13:44:35.866Z,1.00
2019-01-05T13:48:00.406Z,1.05
2019-01-05T13:51:26.505Z,1.10
2019-01-05T13:54:07.212Z,0.93
2019-01-05T13:56:59.436Z,1.22
2019-01-05T13:59:47.039Z,0.88
2019-01-05T14:02:34.705Z,0.90
2019-01-05T14:05:22.657Z,0.85
2019-01-05T14:08:10.461Z,1.22
2019-01-05T14:10:58.260Z,0.90
2019-01-05T14:17:02.046Z,1.05
2019-01-05T14:23:11.782Z,1.30
2019-01-05T14:27:03.816Z,0.90
2019-01-05T14:29:53.123Z,0.88
2019-01-05T14:39:10.530Z,1.22
2019-01-05T14:54:09.981Z,0.80
2019-01-05T14:57:34.561Z,1.10
2019-01-05T14:59:51.147Z,0.82
2019-01-05T15:03:28.836Z,1.00
2019-01-05T15:05:48.236Z,1.00
2019-01-05T15:08:36.058Z,1.30
2019-01-05T15:11:23.893Z,1.20
2019-01-05T15:14:11.712Z,1.37
2019-01-05T15:16:59.655Z,1.22
2019-01-05T15:19:47.486Z,0.90
2019-01-05T15:22:35.247Z,1.17
2019-01-05T15:25:23.187Z,1.20
2019-01-05T15:28:10.902Z,1.27
2019-01-05T15:30:58.916Z,1.17
2019-01-05T15:33:46.748Z,1.52
2019-01-05T15:36:34.573Z,1.30
2019-01-05T15:42:04.375Z,1.87
2019-01-05T15:44:52.108Z,1.30
2019-01-05T15:47:59.146Z,1.47
2019-01-05T15:50:46.862Z,1.60
2019-01-05T15:53:34.583Z,1.60
2019-01-05T15:56:22.438Z,1.40
2019-01-05T15:59:10.225Z,1.32
2019-01-05T16:01:57.916Z,1.72
2019-01-05T16:04:45.718Z,1.60
2019-01-05T16:07:48.058Z,1.45
2019-01-05T16:10:23.207Z,1.40
2019-01-05T16:13:10.898Z,1.62
2019-01-05T16:15:58.678Z,1.50
2019-01-05T16:18:46.358Z,1.50
2019-01-05T16:21:34.088Z,1.50
2019-01-05T16:24:21.916Z,2.70
2019-01-05T16:27:09.663Z,2.25
2019-01-05T16:29:53.459Z,1.90
2019-01-05T16:32:41.120Z,2.65
2019-01-05T16:35:28.759Z,1.98
2019-01-05T16:38:16.429Z,1.60
2019-01-05T16:41:04.139Z,1.75
2019-01-05T16:43:51.784Z,1.80
2019-01-05T16:46:39.446Z,1.98
2019-01-05T16:49:27.318Z,2.15
2019-01-05T16:52:14.984Z,1.90
2019-01-05T16:55:02.824Z,2.22
2019-01-05T16:57:50.633Z,2.25
2019-01-05T17:00:38.488Z,2.47
2019-01-05T17:03:26.300Z,2.17
2019-01-05T17:06:27.485Z,1.95
2019-01-05T17:09:03.386Z,1.98
2019-01-05T17:14:33.314Z,2.00
2019-01-05T17:17:21.201Z,1.77
2019-01-05T17:19:58.965Z,1.60
2019-01-05T17:22:46.694Z,2.10
2019-01-05T17:25:34.518Z,1.80
2019-01-05T17:28:20.669Z,2.15
2019-01-05T17:31:08.532Z,1.90
2019-01-05T17:33:50.774Z,2.15
2019-01-05T17:36:38.570Z,1.95
2019-01-05T17:42:22.044Z,2.37
2019-01-05T17:48:07.957Z,1.85
2019-01-05T17:50:55.568Z,2.30
2019-01-05T17:59:56.675Z,2.30
2019-01-05T18:02:44.378Z,2.15
2019-01-05T18:05:32.051Z,2.20
2019-01-05T18:08:19.846Z,2.05
2019-01-05T18:14:20.963Z,2.08
2019-01-05T18:17:08.926Z,1.80
2019-01-05T18:19:57.782Z,1.52
2019-01-05T18:22:45.453Z,2.10
2019-01-05T18:28:27.377Z,2.80
2019-01-05T18:31:15.319Z,2.47
2019-01-05T18:34:03.183Z,1.98
2019-01-05T18:36:51.320Z,1.95
2019-01-05T18:39:39.294Z,2.00
2019-01-05T18:42:27.164Z,2.17
2019-01-05T18:45:14.932Z,1.98
2019-01-05T18:48:02.739Z,1.72
2019-01-05T18:50:50.556Z,1.87
2019-01-05T18:53:38.410Z,1.98
2019-01-05T18:56:26.328Z,2.00
2019-01-05T18:59:16.695Z,1.57
2019-01-05T19:02:04.516Z,2.37
2019-01-05T19:04:52.302Z,2.10
2019-01-05T19:10:47.823Z,3.55
2019-01-05T19:13:29.452Z,2.60
2019-01-05T19:29:09.182Z,1.90
2019-01-05T19:37:30.545Z,2.85
2019-01-05T19:50:00.913Z,2.70
2019-01-05T23:59:27.734Z,3.62
